Time;durP1;ratioP1;P1;durP2;ratioP2;P2;SDS_P1;SDS_P2;PMS_P1;PMS_P2;Temp;Humidity;BMP_temperature;BMP_pressure;BME280_temperature;BME280_humidity;BME280_pressure;Samples;Min_cycle;Max_cycle;Signal;HPM_P1;HPM_P2
2022/10/16 00:01:05;;;;;;;6.97;5.93;;;;;;;;;;5089762;27;21306;-72
2022/10/16 00:03:32;;;;;;;7.22;5.65;;;;;;;;;;5089698;27;21076;-73
2022/10/16 00:06:00;;;;;;;7.45;6.32;;;;;;;;;;5091549;27;20451;-72
2022/10/16 00:08:26;;;;;;;6.72;6.22;;;;;;;;;;5091260;27;20696;-72
2022/10/16 00:10:53;;;;;;;8.60;6.60;;;;;;;;;;5088805;27;20213;-70
2022/10/16 00:13:20;;;;;;;7.32;6.72;;;;;;;;;;5088447;27;20583;-73
2022/10/16 00:15:47;;;;;;;9.65;8.18;;;;;;;;;;5090553;27;20192;-74
2022/10/16 00:18:14;;;;;;;13.80;9.93;;;;;;;;;;5089618;27;20867;-72
2022/10/16 00:20:42;;;;;;;15.85;9.60;;;;;;;;;;5089178;27;20209;-72
2022/10/16 00:23:10;;;;;;;19.90;12.18;;;;;;;;;;5088720;27;21050;-72
2022/10/16 00:25:36;;;;;;;20.48;11.02;;;;;;;;;;5090657;27;20201;-72
2022/10/16 00:28:03;;;;;;;11.40;9.40;;;;;;;;;;5091537;27;20227;-73
2022/10/16 00:30:29;;;;;;;17.50;9.68;;;;;;;;;;5088116;27;20208;-72
2022/10/16 00:32:56;;;;;;;10.75;8.15;;;;;;;;;;5088915;27;20211;-72
2022/10/16 00:35:23;;;;;;;12.80;9.48;;;;;;;;;;5090442;27;20208;-73
2022/10/16 00:37:51;;;;;;;16.60;9.50;;;;;;;;;;5090043;27;20236;-74
2022/10/16 00:40:17;;;;;;;11.10;8.10;;;;;;;;;;5089135;27;20232;-73
2022/10/16 00:42:44;;;;;;;15.45;9.85;;;;;;;;;;5088719;27;20219;-72
2022/10/16 00:45:11;;;;;;;19.20;11.75;;;;;;;;;;5089958;27;20243;-73
2022/10/16 00:47:39;;;;;;;16.45;10.63;;;;;;;;;;5090407;27;20208;-71
2022/10/16 00:50:08;;;;;;;11.52;8.90;;;;;;;;;;5089467;27;20304;-73
2022/10/16 00:52:34;;;;;;;12.25;8.00;;;;;;;;;;5088661;27;20272;-71
2022/10/16 00:55:03;;;;;;;7.90;6.82;;;;;;;;;;5087805;27;20279;-73
2022/10/16 00:57:30;;;;;;;8.38;7.22;;;;;;;;;;5089554;27;20215;-73
2022/10/16 00:59:57;;;;;;;16.73;8.07;;;;;;;;;;5089547;27;20204;-73
2022/10/16 01:02:24;;;;;;;9.25;6.95;;;;;;;;;;5089094;27;20265;-73
2022/10/16 01:04:52;;;;;;;13.90;8.23;;;;;;;;;;5088410;27;20234;-73
2022/10/16 01:07:26;;;;;;;11.05;7.55;;;;;;;;;;5088910;27;20433;-74
2022/10/16 01:09:57;;;;;;;11.00;8.88;;;;;;;;;;5090352;27;20244;-73
2022/10/16 01:12:29;;;;;;;17.50;11.00;;;;;;;;;;5088423;27;20682;-73
2022/10/16 01:14:59;;;;;;;17.65;10.98;;;;;;;;;;5087984;27;20232;-73
2022/10/16 01:17:30;;;;;;;19.15;10.88;;;;;;;;;;5089923;27;20215;-72
2022/10/16 01:20:07;;;;;;;15.07;9.75;;;;;;;;;;5088687;27;20207;-73
2022/10/16 01:22:38;;;;;;;14.43;9.75;;;;;;;;;;5088218;27;20215;-74
2022/10/16 01:25:06;;;;;;;18.05;9.13;;;;;;;;;;5087836;27;20208;-72
2022/10/16 01:27:36;;;;;;;17.10;10.25;;;;;;;;;;5089888;27;20253;-72
2022/10/16 01:30:07;;;;;;;12.30;9.20;;;;;;;;;;5088577;27;20228;-74
2022/10/16 01:32:37;;;;;;;11.38;9.50;;;;;;;;;;5089370;27;20197;-73
2022/10/16 01:35:06;;;;;;;17.55;10.68;;;;;;;;;;5087827;27;20223;-72
2022/10/16 01:37:36;;;;;;;17.83;10.05;;;;;;;;;;5088455;27;20715;-73
2022/10/16 01:40:04;;;;;;;17.48;10.73;;;;;;;;;;5088460;27;20273;-73
2022/10/16 01:42:32;;;;;;;15.25;9.48;;;;;;;;;;5087917;27;20646;-73
2022/10/16 01:45:00;;;;;;;11.82;8.82;;;;;;;;;;5087819;27;20733;-72
2022/10/16 01:47:28;;;;;;;12.95;10.00;;;;;;;;;;5089243;27;20745;-73
2022/10/16 01:49:55;;;;;;;12.82;9.05;;;;;;;;;;5088978;27;20232;-73
2022/10/16 01:52:23;;;;;;;18.15;10.88;;;;;;;;;;5087893;27;20208;-73
2022/10/16 01:54:51;;;;;;;11.82;9.75;;;;;;;;;;5086986;27;20823;-73
2022/10/16 01:57:18;;;;;;;15.90;10.35;;;;;;;;;;5089543;27;20204;-72
2022/10/16 01:59:47;;;;;;;13.30;9.27;;;;;;;;;;5089563;27;20871;-74
2022/10/16 02:02:16;;;;;;;14.30;8.55;;;;;;;;;;5087442;27;20301;-74
2022/10/16 02:04:44;;;;;;;15.25;9.52;;;;;;;;;;5088953;27;20204;-73
2022/10/16 02:07:11;;;;;;;10.35;8.48;;;;;;;;;;5088027;27;20225;-73
2022/10/16 02:09:37;;;;;;;11.32;8.30;;;;;;;;;;5088898;27;20299;-73
2022/10/16 02:12:06;;;;;;;10.23;8.65;;;;;;;;;;5089312;27;21573;-74
2022/10/16 02:14:33;;;;;;;9.90;8.02;;;;;;;;;;5086978;27;20200;-73
2022/10/16 02:16:59;;;;;;;10.40;8.00;;;;;;;;;;5087830;27;20212;-75
2022/10/16 02:19:27;;;;;;;12.18;8.90;;;;;;;;;;5088364;27;20203;-74
2022/10/16 02:21:55;;;;;;;12.70;8.38;;;;;;;;;;5088177;27;20778;-73
2022/10/16 02:24:26;;;;;;;9.82;8.27;;;;;;;;;;5087446;27;20223;-73
2022/10/16 02:26:55;;;;;;;9.73;7.85;;;;;;;;;;5088354;27;20208;-73
2022/10/16 02:29:23;;;;;;;8.75;7.70;;;;;;;;;;5087653;27;20236;-72
2022/10/16 02:31:51;;;;;;;8.77;8.02;;;;;;;;;;5087338;27;21118;-72
2022/10/16 02:34:19;;;;;;;9.88;7.50;;;;;;;;;;5088037;27;20690;-73
2022/10/16 02:36:49;;;;;;;9.10;8.05;;;;;;;;;;5087641;27;20227;-73
2022/10/16 02:39:16;;;;;;;8.98;8.07;;;;;;;;;;5088036;27;20207;-74
2022/10/16 02:41:42;;;;;;;10.25;8.60;;;;;;;;;;5086471;27;20204;-73
2022/10/16 02:44:09;;;;;;;10.48;7.25;;;;;;;;;;5086853;27;20293;-72
2022/10/16 02:46:35;;;;;;;8.70;7.70;;;;;;;;;;5086138;27;20603;-72
2022/10/16 02:49:01;;;;;;;8.95;7.13;;;;;;;;;;5087094;27;20228;-72
2022/10/16 02:51:28;;;;;;;11.30;8.32;;;;;;;;;;5086842;27;20224;-71
2022/10/16 02:53:56;;;;;;;10.45;7.70;;;;;;;;;;5086143;27;20503;-72
2022/10/16 02:56:23;;;;;;;8.77;7.65;;;;;;;;;;5084435;27;20300;-72
2022/10/16 02:58:49;;;;;;;13.60;7.97;;;;;;;;;;5085689;27;20204;-72
2022/10/16 03:01:16;;;;;;;8.05;7.28;;;;;;;;;;5085827;27;20205;-71
2022/10/16 03:03:43;;;;;;;7.28;6.70;;;;;;;;;;5084851;27;20742;-72
2022/10/16 03:06:09;;;;;;;7.60;6.88;;;;;;;;;;5084202;27;20280;-72
2022/10/16 03:08:36;;;;;;;8.35;7.35;;;;;;;;;;5086869;27;21923;-73
2022/10/16 03:11:04;;;;;;;8.00;7.20;;;;;;;;;;5087656;27;20308;-72
2022/10/16 03:13:30;;;;;;;9.25;8.20;;;;;;;;;;5087175;27;20197;-71
2022/10/16 03:15:57;;;;;;;8.77;7.45;;;;;;;;;;5086633;27;20224;-73
2022/10/16 03:18:23;;;;;;;7.47;6.60;;;;;;;;;;5088252;27;20212;-73
2022/10/16 03:20:50;;;;;;;7.65;6.90;;;;;;;;;;5088070;27;20287;-72
2022/10/16 03:23:16;;;;;;;7.43;6.82;;;;;;;;;;5085698;27;20223;-74
2022/10/16 03:25:43;;;;;;;7.95;7.00;;;;;;;;;;5086105;27;20316;-73
2022/10/16 03:28:11;;;;;;;8.45;7.30;;;;;;;;;;5091552;27;20335;-74
2022/10/16 03:30:39;;;;;;;9.77;7.22;;;;;;;;;;5091668;27;20231;-73
2022/10/16 03:33:06;;;;;;;8.18;7.35;;;;;;;;;;5092664;27;20222;-72
2022/10/16 03:35:33;;;;;;;7.72;6.95;;;;;;;;;;5091077;27;20221;-73
2022/10/16 03:37:59;;;;;;;8.43;6.30;;;;;;;;;;5091538;27;20256;-73
2022/10/16 03:40:25;;;;;;;9.05;7.35;;;;;;;;;;5091863;27;20660;-73
2022/10/16 03:42:54;;;;;;;8.52;7.30;;;;;;;;;;5089568;27;20631;-75
2022/10/16 03:45:22;;;;;;;7.10;6.47;;;;;;;;;;5091744;27;20247;-74
2022/10/16 03:47:48;;;;;;;7.38;6.50;;;;;;;;;;5093566;27;20654;-73
2022/10/16 03:50:15;;;;;;;9.18;6.68;;;;;;;;;;5092281;27;20243;-74
2022/10/16 03:52:41;;;;;;;8.90;6.80;;;;;;;;;;5089668;27;20214;-73
2022/10/16 03:55:08;;;;;;;9.38;6.75;;;;;;;;;;5089277;27;20739;-73
2022/10/16 03:57:35;;;;;;;8.13;6.85;;;;;;;;;;5088691;27;20265;-73
2022/10/16 04:00:01;;;;;;;13.57;7.53;;;;;;;;;;5090578;27;20204;-73
2022/10/16 04:02:29;;;;;;;8.00;7.20;;;;;;;;;;5090348;27;20212;-72
2022/10/16 04:04:56;;;;;;;9.52;7.03;;;;;;;;;;5088798;27;20204;-72
2022/10/16 04:07:22;;;;;;;10.43;7.93;;;;;;;;;;5089446;27;20228;-71
2022/10/16 04:09:48;;;;;;;12.82;9.00;;;;;;;;;;5090020;27;20231;-72
2022/10/16 04:12:15;;;;;;;14.60;7.95;;;;;;;;;;5091289;27;20645;-72
2022/10/16 04:14:42;;;;;;;9.73;7.28;;;;;;;;;;5090217;27;20886;-73
2022/10/16 04:17:08;;;;;;;9.40;8.35;;;;;;;;;;5090210;27;20670;-72
2022/10/16 04:19:36;;;;;;;11.10;7.50;;;;;;;;;;5090520;27;22005;-70
2022/10/16 04:22:02;;;;;;;7.53;6.57;;;;;;;;;;5089734;27;20681;-72
2022/10/16 04:24:29;;;;;;;6.93;6.25;;;;;;;;;;5088781;27;20235;-73
2022/10/16 04:26:55;;;;;;;6.85;6.22;;;;;;;;;;5088224;27;20205;-73
2022/10/16 04:29:22;;;;;;;9.05;7.32;;;;;;;;;;5090412;27;20328;-73
2022/10/16 04:31:48;;;;;;;8.48;7.68;;;;;;;;;;5090999;27;20193;-73
2022/10/16 04:34:15;;;;;;;8.90;7.82;;;;;;;;;;5090605;27;20209;-72
2022/10/16 04:36:43;;;;;;;10.45;7.00;;;;;;;;;;5089259;27;20240;-73
2022/10/16 04:39:09;;;;;;;13.50;8.55;;;;;;;;;;5089428;27;20265;-72
2022/10/16 04:41:36;;;;;;;8.80;6.93;;;;;;;;;;5090047;27;20207;-75
2022/10/16 04:44:02;;;;;;;13.63;7.28;;;;;;;;;;5091374;27;20263;-73
2022/10/16 04:46:28;;;;;;;11.38;6.65;;;;;;;;;;5090726;27;20641;-73
2022/10/16 04:48:55;;;;;;;11.90;7.28;;;;;;;;;;5090730;27;20209;-72
2022/10/16 04:51:21;;;;;;;9.45;6.82;;;;;;;;;;5095023;27;20677;-73
2022/10/16 04:53:49;;;;;;;8.32;7.53;;;;;;;;;;5093828;27;20207;-72
2022/10/16 04:56:16;;;;;;;10.77;7.50;;;;;;;;;;5090921;27;20260;-73
2022/10/16 04:58:42;;;;;;;14.48;7.47;;;;;;;;;;5091529;27;20702;-72
2022/10/16 05:01:09;;;;;;;17.70;8.27;;;;;;;;;;5091156;27;20256;-73
2022/10/16 05:03:35;;;;;;;15.90;7.80;;;;;;;;;;5089346;27;20234;-73
2022/10/16 05:06:03;;;;;;;9.68;7.72;;;;;;;;;;5087307;27;20258;-73
2022/10/16 05:08:30;;;;;;;12.23;7.85;;;;;;;;;;5089038;27;21206;-73
2022/10/16 05:10:58;;;;;;;13.30;7.10;;;;;;;;;;5090133;27;20228;-73
2022/10/16 05:13:25;;;;;;;10.45;7.85;;;;;;;;;;5088342;27;22028;-72
2022/10/16 05:15:51;;;;;;;11.43;7.72;;;;;;;;;;5089030;27;20200;-71
2022/10/16 05:18:17;;;;;;;11.65;7.97;;;;;;;;;;5088127;27;20200;-72
2022/10/16 05:20:44;;;;;;;11.73;7.90;;;;;;;;;;5088193;27;20201;-71
2022/10/16 05:23:11;;;;;;;9.95;8.68;;;;;;;;;;5089283;27;20299;-72
2022/10/16 05:25:38;;;;;;;13.63;9.45;;;;;;;;;;5088885;27;20213;-75
2022/10/16 05:28:06;;;;;;;17.17;10.82;;;;;;;;;;5088236;27;20212;-73
2022/10/16 05:30:32;;;;;;;14.77;8.95;;;;;;;;;;5087295;27;20220;-72
2022/10/16 05:32:59;;;;;;;9.68;7.60;;;;;;;;;;5090379;27;21889;-72
2022/10/16 05:35:25;;;;;;;10.13;8.02;;;;;;;;;;5088570;27;20204;-72
2022/10/16 05:37:52;;;;;;;8.15;7.35;;;;;;;;;;5088181;27;22579;-72
2022/10/16 05:40:18;;;;;;;8.35;7.50;;;;;;;;;;5088087;27;20208;-71
2022/10/16 05:42:45;;;;;;;9.13;7.63;;;;;;;;;;5089171;27;20682;-72
2022/10/16 05:45:13;;;;;;;18.67;8.38;;;;;;;;;;5087472;27;20229;-72
2022/10/16 05:47:40;;;;;;;20.33;8.88;;;;;;;;;;5086706;27;20252;-73
2022/10/16 05:50:06;;;;;;;24.77;7.75;;;;;;;;;;5087595;27;20224;-72
2022/10/16 05:52:33;;;;;;;17.95;8.82;;;;;;;;;;5089090;27;20262;-73
2022/10/16 05:54:59;;;;;;;12.50;7.47;;;;;;;;;;5087295;27;20302;-74
2022/10/16 05:57:26;;;;;;;15.70;7.63;;;;;;;;;;5090224;27;20686;-72
2022/10/16 05:59:52;;;;;;;8.60;7.57;;;;;;;;;;5087439;27;20697;-73
2022/10/16 06:02:20;;;;;;;14.95;8.50;;;;;;;;;;5088869;27;20265;-74
2022/10/16 06:04:46;;;;;;;8.95;8.05;;;;;;;;;;5088337;27;20208;-72
2022/10/16 06:07:13;;;;;;;7.80;6.95;;;;;;;;;;5087236;27;20220;-72
2022/10/16 06:09:40;;;;;;;14.18;8.35;;;;;;;;;;5086680;27;20297;-73
2022/10/16 06:12:06;;;;;;;11.55;7.50;;;;;;;;;;5089171;27;20291;-73
2022/10/16 06:14:32;;;;;;;9.07;6.57;;;;;;;;;;5088640;27;20277;-72
2022/10/16 06:16:59;;;;;;;9.43;8.15;;;;;;;;;;5086577;27;20313;-73
2022/10/16 06:19:27;;;;;;;10.15;8.70;;;;;;;;;;5087255;27;20254;-73
2022/10/16 06:21:53;;;;;;;14.93;10.43;;;;;;;;;;5090815;27;20280;-73
2022/10/16 06:24:20;;;;;;;22.38;9.80;;;;;;;;;;5087789;27;20245;-72
2022/10/16 06:26:46;;;;;;;15.90;8.05;;;;;;;;;;5086490;27;20204;-72
2022/10/16 06:29:13;;;;;;;12.65;8.18;;;;;;;;;;5088559;27;20258;-73
2022/10/16 06:31:39;;;;;;;10.82;9.18;;;;;;;;;;5087035;27;20255;-71
2022/10/16 06:34:09;;;;;;;14.77;8.18;;;;;;;;;;5087843;27;20211;-72
2022/10/16 06:36:37;;;;;;;10.80;8.70;;;;;;;;;;5086979;27;20261;-72
2022/10/16 06:39:03;;;;;;;10.93;8.25;;;;;;;;;;5088644;27;20258;-73
2022/10/16 06:41:30;;;;;;;10.90;8.57;;;;;;;;;;5085362;27;20200;-72
2022/10/16 06:43:57;;;;;;;19.50;12.48;;;;;;;;;;5087249;27;20724;-73
2022/10/16 06:46:24;;;;;;;15.32;9.68;;;;;;;;;;5088737;27;20257;-72
2022/10/16 06:48:50;;;;;;;12.27;9.68;;;;;;;;;;5087039;27;20208;-71
2022/10/16 06:51:18;;;;;;;11.85;8.65;;;;;;;;;;5087121;27;20297;-72
2022/10/16 06:53:46;;;;;;;18.63;10.82;;;;;;;;;;5086192;27;20228;-73
2022/10/16 06:56:15;;;;;;;21.13;9.23;;;;;;;;;;5087319;27;20218;-73
2022/10/16 06:58:42;;;;;;;12.88;9.85;;;;;;;;;;5086478;27;20208;-73
2022/10/16 07:01:09;;;;;;;11.05;9.70;;;;;;;;;;5088579;27;20227;-71
2022/10/16 07:03:37;;;;;;;11.10;9.20;;;;;;;;;;5092101;27;20200;-73
2022/10/16 07:06:04;;;;;;;10.95;9.65;;;;;;;;;;5090581;27;20196;-72
2022/10/16 07:08:31;;;;;;;10.57;9.40;;;;;;;;;;5092486;27;20276;-74
2022/10/16 07:11:03;;;;;;;9.48;8.52;;;;;;;;;;5089949;27;20224;-72
2022/10/16 07:13:29;;;;;;;11.13;8.63;;;;;;;;;;5091243;27;20284;-73
2022/10/16 07:15:56;;;;;;;10.70;8.48;;;;;;;;;;5090706;27;20347;-72
2022/10/16 07:18:26;;;;;;;15.50;10.20;;;;;;;;;;5092215;27;21070;-72
2022/10/16 07:20:52;;;;;;;10.70;8.48;;;;;;;;;;5092602;27;20208;-74
2022/10/16 07:23:19;;;;;;;8.60;7.70;;;;;;;;;;5092536;27;20208;-74
2022/10/16 07:25:45;;;;;;;13.63;7.65;;;;;;;;;;5090765;27;20219;-72
2022/10/16 07:28:13;;;;;;;9.50;7.90;;;;;;;;;;5091839;27;20235;-74
2022/10/16 07:30:40;;;;;;;9.18;7.00;;;;;;;;;;5090608;27;20296;-73
2022/10/16 07:33:06;;;;;;;8.20;7.47;;;;;;;;;;5091049;27;20204;-73
2022/10/16 07:35:33;;;;;;;8.27;7.55;;;;;;;;;;5090291;27;20204;-73
2022/10/16 07:37:59;;;;;;;8.18;7.28;;;;;;;;;;5091145;27;20208;-74
2022/10/16 07:40:26;;;;;;;11.40;7.03;;;;;;;;;;5090802;27;20729;-73
2022/10/16 07:42:53;;;;;;;9.48;7.07;;;;;;;;;;5092924;27;21008;-73
2022/10/16 07:45:21;;;;;;;9.35;7.93;;;;;;;;;;5092397;27;20227;-72
2022/10/16 07:47:47;;;;;;;8.10;7.03;;;;;;;;;;5092213;27;20660;-73
2022/10/16 07:50:14;;;;;;;8.73;6.85;;;;;;;;;;5091668;27;20204;-73
2022/10/16 07:52:40;;;;;;;7.43;6.68;;;;;;;;;;5091122;27;21669;-73
2022/10/16 07:55:07;;;;;;;8.25;6.85;;;;;;;;;;5091228;27;20262;-73
2022/10/16 07:57:34;;;;;;;10.10;7.70;;;;;;;;;;5091715;27;20208;-73
2022/10/16 08:00:00;;;;;;;10.95;7.55;;;;;;;;;;5090074;27;21733;-75
2022/10/16 08:02:28;;;;;;;11.25;8.10;;;;;;;;;;5091866;27;20246;-74
2022/10/16 08:04:55;;;;;;;9.38;7.82;;;;;;;;;;5091468;27;20261;-73
2022/10/16 08:07:21;;;;;;;9.38;8.57;;;;;;;;;;5090778;27;20255;-74
2022/10/16 08:09:50;;;;;;;14.60;12.10;;;;;;;;;;5092000;27;20216;-74
2022/10/16 08:12:16;;;;;;;12.27;9.77;;;;;;;;;;5089884;27;20227;-75
2022/10/16 08:14:43;;;;;;;10.45;9.30;;;;;;;;;;5093108;27;20228;-73
2022/10/16 08:17:09;;;;;;;11.48;9.35;;;;;;;;;;5090391;27;20265;-72
2022/10/16 08:19:37;;;;;;;10.18;8.98;;;;;;;;;;5091710;27;20265;-74
2022/10/16 08:22:04;;;;;;;8.18;7.10;;;;;;;;;;5089596;27;20200;-73
2022/10/16 08:24:32;;;;;;;9.35;7.75;;;;;;;;;;5090592;27;20201;-72
2022/10/16 08:26:58;;;;;;;9.95;7.93;;;;;;;;;;5090805;27;20284;-72
2022/10/16 08:29:25;;;;;;;9.05;7.38;;;;;;;;;;5090261;27;21250;-73
2022/10/16 08:31:51;;;;;;;9.07;7.10;;;;;;;;;;5091356;27;20239;-73
2022/10/16 08:34:18;;;;;;;7.28;6.57;;;;;;;;;;5090412;27;20204;-73
2022/10/16 08:36:46;;;;;;;6.15;5.72;;;;;;;;;;5089571;27;20675;-74
2022/10/16 08:39:12;;;;;;;5.97;5.38;;;;;;;;;;5091714;27;20205;-72
2022/10/16 08:41:55;;;;;;;5.13;4.35;;;;;;;;;;5089460;27;20213;-73
2022/10/16 08:44:39;;;;;;;5.20;4.80;;;;;;;;;;5089400;27;20227;-74
2022/10/16 08:47:09;;;;;;;13.68;4.85;;;;;;;;;;5089430;27;20224;-74
2022/10/16 08:49:36;;;;;;;4.53;4.18;;;;;;;;;;5089912;27;20320;-75
2022/10/16 08:52:04;;;;;;;5.93;4.50;;;;;;;;;;5091618;27;21231;-74
2022/10/16 08:54:34;;;;;;;5.75;3.38;;;;;;;;;;5090064;27;20694;-74
2022/10/16 08:57:08;;;;;;;4.75;4.45;;;;;;;;;;5089695;27;20211;-73
2022/10/16 08:59:34;;;;;;;6.72;4.10;;;;;;;;;;5090855;27;20636;-73
2022/10/16 09:02:01;;;;;;;8.90;4.88;;;;;;;;;;5091946;27;20698;-73
2022/10/16 09:04:44;;;;;;;5.50;4.72;;;;;;;;;;5091213;27;20205;-74
2022/10/16 09:07:16;;;;;;;6.35;4.78;;;;;;;;;;5090578;27;20253;-74
2022/10/16 09:09:51;;;;;;;5.75;4.63;;;;;;;;;;5094712;27;20212;-73
2022/10/16 09:12:20;;;;;;;8.23;4.65;;;;;;;;;;5090568;27;20220;-73
2022/10/16 09:14:51;;;;;;;6.15;5.57;;;;;;;;;;5089299;27;20205;-74
2022/10/16 09:17:26;;;;;;;4.68;4.35;;;;;;;;;;5090490;27;20708;-72
2022/10/16 09:19:55;;;;;;;4.13;3.58;;;;;;;;;;5090565;27;20208;-72
2022/10/16 09:22:26;;;;;;;4.53;4.13;;;;;;;;;;5088031;27;20265;-73
2022/10/16 09:24:52;;;;;;;6.95;4.30;;;;;;;;;;5086686;27;20351;-74
2022/10/16 09:27:19;;;;;;;7.03;5.07;;;;;;;;;;5088748;27;20204;-72
2022/10/16 09:29:45;;;;;;;3.78;3.50;;;;;;;;;;5088127;27;20308;-73
2022/10/16 09:32:13;;;;;;;4.03;3.60;;;;;;;;;;5090467;27;20721;-73
2022/10/16 09:34:43;;;;;;;3.78;3.20;;;;;;;;;;5088920;27;20285;-72
2022/10/16 09:37:10;;;;;;;4.28;3.88;;;;;;;;;;5089355;27;20701;-72
2022/10/16 09:39:47;;;;;;;4.40;4.03;;;;;;;;;;5088794;27;21829;-76
2022/10/16 09:42:15;;;;;;;4.70;3.55;;;;;;;;;;5088760;27;20433;-73
2022/10/16 09:44:41;;;;;;;6.07;4.32;;;;;;;;;;5088044;27;22240;-74
2022/10/16 09:47:14;;;;;;;7.38;3.60;;;;;;;;;;5088146;27;20204;-74
2022/10/16 09:49:51;;;;;;;3.90;3.65;;;;;;;;;;5090611;27;20353;-72
2022/10/16 09:52:19;;;;;;;3.80;3.60;;;;;;;;;;5089542;27;20285;-73
2022/10/16 09:54:54;;;;;;;3.65;3.45;;;;;;;;;;5088015;27;20212;-73
2022/10/16 09:57:22;;;;;;;7.70;3.72;;;;;;;;;;5090881;27;20202;-74
2022/10/16 09:59:49;;;;;;;4.20;3.90;;;;;;;;;;5087772;27;20232;-73
2022/10/16 10:02:16;;;;;;;4.10;3.75;;;;;;;;;;5088734;27;20224;-74
2022/10/16 10:04:46;;;;;;;6.35;3.83;;;;;;;;;;5087625;27;20276;-74
2022/10/16 10:07:18;;;;;;;4.60;4.05;;;;;;;;;;5086595;27;20225;-74
2022/10/16 10:09:45;;;;;;;3.53;3.33;;;;;;;;;;5089000;27;20227;-73
2022/10/16 10:12:19;;;;;;;5.18;3.28;;;;;;;;;;5089355;27;20331;-72
2022/10/16 10:14:47;;;;;;;4.65;4.10;;;;;;;;;;5088923;27;20700;-71
2022/10/16 10:17:16;;;;;;;3.63;3.30;;;;;;;;;;5088484;27;20245;-73
2022/10/16 10:19:46;;;;;;;3.17;2.97;;;;;;;;;;5086484;27;20204;-74
2022/10/16 10:22:22;;;;;;;4.45;4.05;;;;;;;;;;5090068;27;20671;-73
2022/10/16 10:25:01;;;;;;;4.00;3.80;;;;;;;;;;5089724;27;20221;-72
2022/10/16 10:27:33;;;;;;;3.92;3.63;;;;;;;;;;5087510;27;20196;-72
2022/10/16 10:30:07;;;;;;;3.80;3.45;;;;;;;;;;5088717;27;20204;-71
2022/10/16 10:32:36;;;;;;;8.88;3.30;;;;;;;;;;5088685;27;20583;-72
2022/10/16 10:35:08;;;;;;;4.00;3.70;;;;;;;;;;5087906;27;20231;-73
2022/10/16 10:37:50;;;;;;;4.38;4.00;;;;;;;;;;5088301;27;20200;-73
2022/10/16 10:40:23;;;;;;;4.35;3.95;;;;;;;;;;5086302;27;20630;-73
2022/10/16 10:42:58;;;;;;;5.00;3.63;;;;;;;;;;5090157;27;20200;-74
2022/10/16 10:45:28;;;;;;;3.83;3.53;;;;;;;;;;5088857;27;20227;-73
2022/10/16 10:48:04;;;;;;;4.07;3.72;;;;;;;;;;5086048;27;20665;-73
2022/10/16 10:50:34;;;;;;;3.30;3.08;;;;;;;;;;5086908;27;20229;-72
2022/10/16 10:53:03;;;;;;;4.88;3.80;;;;;;;;;;5088004;27;20232;-74
2022/10/16 10:55:37;;;;;;;5.50;3.83;;;;;;;;;;5086222;27;20844;-74
2022/10/16 10:58:24;;;;;;;3.90;3.70;;;;;;;;;;5087095;27;20284;-74
2022/10/16 11:00:58;;;;;;;3.50;3.20;;;;;;;;;;5079783;27;20478;-75
2022/10/16 11:03:33;;;;;;;3.67;3.38;;;;;;;;;;5086786;27;20733;-75
2022/10/16 11:06:02;;;;;;;6.63;3.47;;;;;;;;;;5087347;27;20204;-72
2022/10/16 11:08:33;;;;;;;5.80;3.33;;;;;;;;;;5088414;27;20260;-74
2022/10/16 11:11:02;;;;;;;6.97;3.65;;;;;;;;;;5087298;27;20280;-73
2022/10/16 11:13:32;;;;;;;10.52;3.90;;;;;;;;;;5087096;27;20227;-73
2022/10/16 11:16:03;;;;;;;3.80;3.60;;;;;;;;;;5087184;27;20201;-73
2022/10/16 11:18:33;;;;;;;3.80;3.50;;;;;;;;;;5085257;27;20200;-70
2022/10/16 11:21:01;;;;;;;5.45;5.05;;;;;;;;;;5085173;27;20220;-70
2022/10/16 11:23:29;;;;;;;6.32;4.93;;;;;;;;;;5086425;27;20270;-69
2022/10/16 11:25:58;;;;;;;7.28;4.90;;;;;;;;;;5084733;27;20211;-69
2022/10/16 11:28:26;;;;;;;5.28;3.97;;;;;;;;;;5084455;27;20289;-69
2022/10/16 11:30:55;;;;;;;4.85;4.38;;;;;;;;;;5085037;27;20253;-68
2022/10/16 11:33:26;;;;;;;4.82;4.43;;;;;;;;;;5084120;27;20808;-71
2022/10/16 11:35:55;;;;;;;6.03;4.38;;;;;;;;;;5085038;27;20215;-69
2022/10/16 11:38:25;;;;;;;5.68;4.53;;;;;;;;;;5089114;27;20211;-74
2022/10/16 11:40:53;;;;;;;5.03;4.07;;;;;;;;;;5086730;27;20253;-73
2022/10/16 11:43:23;;;;;;;3.70;3.38;;;;;;;;;;5088380;27;20220;-73
2022/10/16 11:45:52;;;;;;;3.65;3.35;;;;;;;;;;5082334;27;20312;-72
2022/10/16 11:48:23;;;;;;;4.57;3.75;;;;;;;;;;5086283;27;21786;-72
2022/10/16 11:50:53;;;;;;;8.20;4.18;;;;;;;;;;5086839;27;20269;-73
2022/10/16 11:53:24;;;;;;;4.10;3.80;;;;;;;;;;5091696;27;20226;-76
2022/10/16 11:55:51;;;;;;;3.70;3.30;;;;;;;;;;5095261;27;20197;-74
2022/10/16 11:58:23;;;;;;;4.00;3.65;;;;;;;;;;5096933;27;20204;-73
2022/10/16 12:00:55;;;;;;;3.50;3.28;;;;;;;;;;5095074;27;20205;-73
2022/10/16 12:03:23;;;;;;;3.88;3.55;;;;;;;;;;5095215;27;21063;-73
2022/10/16 12:06:05;;;;;;;4.32;3.55;;;;;;;;;;5095018;27;20303;-72
2022/10/16 12:08:34;;;;;;;5.65;3.45;;;;;;;;;;5075114;27;20209;-73
2022/10/16 12:11:07;;;;;;;3.67;3.15;;;;;;;;;;5093402;27;20261;-70
2022/10/16 12:13:35;;;;;;;3.85;3.53;;;;;;;;;;5088663;27;20227;-72
2022/10/16 12:16:05;;;;;;;3.13;2.90;;;;;;;;;;5093737;27;20647;-72
2022/10/16 12:18:33;;;;;;;3.20;3.00;;;;;;;;;;5087363;27;20205;-76
2022/10/16 12:21:05;;;;;;;2.75;2.55;;;;;;;;;;5091925;27;20215;-73
2022/10/16 12:23:33;;;;;;;3.53;3.22;;;;;;;;;;5090297;27;20200;-74
2022/10/16 12:26:02;;;;;;;5.15;3.55;;;;;;;;;;5090926;27;20268;-74
2022/10/16 12:28:29;;;;;;;3.20;2.90;;;;;;;;;;5091161;27;20844;-73
2022/10/16 12:30:57;;;;;;;3.03;2.83;;;;;;;;;;5091987;27;20196;-73
2022/10/16 12:33:25;;;;;;;9.73;3.60;;;;;;;;;;5091760;27;20967;-72
2022/10/16 12:35:51;;;;;;;3.33;3.13;;;;;;;;;;5089509;27;20197;-71
2022/10/16 12:38:19;;;;;;;3.15;2.90;;;;;;;;;;5087897;27;20678;-71
2022/10/16 12:40:48;;;;;;;5.72;3.20;;;;;;;;;;5087451;27;20212;-71
2022/10/16 12:43:29;;;;;;;3.17;2.83;;;;;;;;;;5086282;27;20783;-72
2022/10/16 12:46:03;;;;;;;3.60;3.30;;;;;;;;;;5086882;27;20685;-71
2022/10/16 12:48:29;;;;;;;21.40;13.73;;;;;;;;;;5087218;27;20205;-73
2022/10/16 12:50:56;;;;;;;90.20;48.47;;;;;;;;;;5092427;27;20741;-71
2022/10/16 12:53:23;;;;;;;18.08;12.38;;;;;;;;;;5093083;27;20313;-73
2022/10/16 12:55:58;;;;;;;3.97;3.58;;;;;;;;;;5089496;27;20212;-71
2022/10/16 12:58:33;;;;;;;5.20;3.80;;;;;;;;;;5091024;27;20563;-73
2022/10/16 13:01:04;;;;;;;5.38;3.25;;;;;;;;;;5087875;27;20199;-72
2022/10/16 13:03:44;;;;;;;3.08;2.60;;;;;;;;;;5088722;27;20189;-72
2022/10/16 13:06:17;;;;;;;2.72;2.53;;;;;;;;;;5090907;27;20755;-71
2022/10/16 13:08:52;;;;;;;4.40;2.95;;;;;;;;;;5090738;27;20216;-72
2022/10/16 13:11:23;;;;;;;3.20;3.00;;;;;;;;;;5089893;27;20194;-71
2022/10/16 13:14:08;;;;;;;3.55;3.28;;;;;;;;;;5091655;27;20270;-73
2022/10/16 13:16:40;;;;;;;3.25;3.00;;;;;;;;;;5090112;27;20207;-72
2022/10/16 13:19:13;;;;;;;4.32;2.92;;;;;;;;;;5089325;27;21846;-73
2022/10/16 13:21:44;;;;;;;2.92;2.72;;;;;;;;;;5089485;27;20728;-72
2022/10/16 13:24:20;;;;;;;2.78;2.58;;;;;;;;;;5089919;27;20203;-72
2022/10/16 13:26:51;;;;;;;2.70;2.50;;;;;;;;;;5088465;27;20834;-72
2022/10/16 13:29:19;;;;;;;3.40;3.10;;;;;;;;;;5087334;27;20196;-74
2022/10/16 13:31:46;;;;;;;3.15;2.90;;;;;;;;;;5089251;27;20249;-72
2022/10/16 13:34:15;;;;;;;3.40;3.20;;;;;;;;;;5090433;27;20277;-73
2022/10/16 13:36:44;;;;;;;3.33;3.05;;;;;;;;;;5091153;27;20606;-73
2022/10/16 13:39:12;;;;;;;4.13;2.90;;;;;;;;;;5090376;27;20200;-72
2022/10/16 13:41:39;;;;;;;7.78;4.03;;;;;;;;;;5090173;27;20196;-73
2022/10/16 13:44:13;;;;;;;2.97;2.67;;;;;;;;;;5089318;27;20296;-73
2022/10/16 13:46:39;;;;;;;3.25;2.95;;;;;;;;;;5089403;27;20207;-73
2022/10/16 13:49:07;;;;;;;4.57;3.25;;;;;;;;;;5090458;27;20205;-72
2022/10/16 13:51:34;;;;;;;3.72;2.65;;;;;;;;;;5090526;27;20212;-74
2022/10/16 13:54:01;;;;;;;4.47;3.08;;;;;;;;;;5088746;27;20212;-73
2022/10/16 13:56:28;;;;;;;3.00;2.80;;;;;;;;;;5089524;27;20733;-73
2022/10/16 13:59:02;;;;;;;3.22;2.92;;;;;;;;;;5086702;27;20253;-73
2022/10/16 14:01:31;;;;;;;6.00;2.25;;;;;;;;;;5082831;27;20285;-72
2022/10/16 14:04:02;;;;;;;3.05;2.60;;;;;;;;;;5084542;27;20324;-71
2022/10/16 14:06:29;;;;;;;2.95;2.75;;;;;;;;;;5083728;27;20296;-72
2022/10/16 14:09:00;;;;;;;3.13;2.85;;;;;;;;;;5085030;27;20674;-72
2022/10/16 14:11:26;;;;;;;2.50;2.40;;;;;;;;;;5087635;27;20239;-72
2022/10/16 14:13:53;;;;;;;2.88;2.67;;;;;;;;;;5086944;27;20224;-72
2022/10/16 14:16:22;;;;;;;3.42;2.45;;;;;;;;;;5086932;27;21058;-72
2022/10/16 14:18:53;;;;;;;3.47;2.53;;;;;;;;;;5085605;27;20204;-71
2022/10/16 14:21:19;;;;;;;5.47;2.60;;;;;;;;;;5085217;27;20204;-71
2022/10/16 14:23:46;;;;;;;10.82;2.85;;;;;;;;;;5084858;27;20224;-71
2022/10/16 14:26:14;;;;;;;4.85;2.90;;;;;;;;;;5086555;27;20228;-71
2022/10/16 14:28:41;;;;;;;4.47;2.58;;;;;;;;;;5082973;27;20211;-71
2022/10/16 14:31:36;;;;;;;3.30;3.00;;;;;;;;;;5085220;27;20200;-73
2022/10/16 14:34:04;;;;;;;3.45;2.70;;;;;;;;;;5085294;27;20231;-72
2022/10/16 14:36:31;;;;;;;5.35;2.92;;;;;;;;;;5084324;27;20682;-72
2022/10/16 14:39:18;;;;;;;3.45;3.22;;;;;;;;;;5089779;27;22212;-73
2022/10/16 14:41:53;;;;;;;3.92;3.45;;;;;;;;;;5057258;27;20196;-71
2022/10/16 14:44:25;;;;;;;15.52;4.32;;;;;;;;;;5088004;27;20825;-72
2022/10/16 14:46:57;;;;;;;5.65;3.83;;;;;;;;;;5090004;27;20208;-73